Terminal Aerodrome Forecast
Issued by NWS

Home | Current Version | Previous Version | Graphics & Text | Print | Product List | Glossary On
Versions: 1 2 3 4 5 6 7 8 9 10 11 12 13 14 15
000
FTUS45 KGGW 240232 AAA
TAFGDV
TAF AMD
KGDV 240232Z 2403/2424 09013KT P6SM BKN020 OVC080
     FM240600 08009KT P6SM VCSH OVC015
     FM241900 33008KT P6SM BKN025
     FM242300 02010KT P6SM BKN030=

USA.gov is the U.S. government's official web portal to all federal, state and local government web resources and services.